createdAt,value
2024-02-18T00:00:50.233Z,36.07
2024-02-18T00:01:50.245Z,36.08
2024-02-18T00:02:50.333Z,36.11
2024-02-18T00:03:50.381Z,36.11
2024-02-18T00:04:50.510Z,36.07
2024-02-18T00:05:50.421Z,36.08
2024-02-18T00:06:50.518Z,36.08
2024-02-18T00:07:50.490Z,36.10
2024-02-18T00:08:50.628Z,36.08
2024-02-18T00:09:50.616Z,36.07
2024-02-18T00:10:50.650Z,36.08
2024-02-18T00:11:50.671Z,36.10
2024-02-18T00:12:50.750Z,36.11
2024-02-18T00:13:50.812Z,36.04
2024-02-18T00:14:50.804Z,36.07
2024-02-18T00:15:50.910Z,36.07
2024-02-18T00:16:50.892Z,36.12
2024-02-18T00:17:50.981Z,36.08
2024-02-18T00:18:51.147Z,36.05
2024-02-18T00:19:51.077Z,36.09
2024-02-18T00:20:51.077Z,36.13
2024-02-18T00:21:51.135Z,36.13
2024-02-18T00:22:51.166Z,36.08
2024-02-18T00:23:51.208Z,36.10
2024-02-18T00:24:51.282Z,36.07
2024-02-18T00:25:51.299Z,36.04
2024-02-18T00:26:58.091Z,36.08
2024-02-18T00:27:52.357Z,36.04
2024-02-18T00:28:51.360Z,36.07
2024-02-18T00:29:51.317Z,36.14
2024-02-18T00:30:51.326Z,36.10
2024-02-18T00:31:51.394Z,36.07
2024-02-18T00:32:51.349Z,36.05
2024-02-18T00:33:51.352Z,36.14
2024-02-18T00:34:51.356Z,36.13
2024-02-18T00:35:51.265Z,36.05
2024-02-18T00:36:51.364Z,36.05
2024-02-18T00:37:51.286Z,36.09
2024-02-18T00:38:51.349Z,36.14
2024-02-18T00:39:51.460Z,36.11
2024-02-18T00:40:51.503Z,36.11
2024-02-18T00:41:51.444Z,36.13
2024-02-18T00:42:51.516Z,36.14
2024-02-18T00:43:51.543Z,36.13
2024-02-18T00:44:51.562Z,36.14
2024-02-18T00:45:51.638Z,36.13
2024-02-18T00:46:57.866Z,36.11
2024-02-18T00:47:52.739Z,36.17
2024-02-18T00:48:51.856Z,36.10
2024-02-18T00:49:51.846Z,36.11
2024-02-18T00:50:51.609Z,36.11
2024-02-18T00:51:51.717Z,36.12
2024-02-18T00:52:51.614Z,36.10
2024-02-18T00:53:51.599Z,36.13
2024-02-18T00:54:51.665Z,36.08
2024-02-18T00:55:51.597Z,36.11
2024-02-18T00:56:51.590Z,36.14
2024-02-18T00:57:51.646Z,36.14
2024-02-18T00:58:51.641Z,36.13
2024-02-18T00:59:51.725Z,36.19
2024-02-18T01:00:51.770Z,36.10
2024-02-18T01:01:51.783Z,36.13
2024-02-18T01:02:51.792Z,36.13
2024-02-18T01:03:52.063Z,36.14
2024-02-18T01:04:52.008Z,36.10
2024-02-18T01:05:51.998Z,36.15
2024-02-18T01:06:52.018Z,36.11
2024-02-18T01:07:52.080Z,36.20
2024-02-18T01:08:52.073Z,36.13
2024-02-18T01:09:52.219Z,36.13
2024-02-18T01:10:52.148Z,36.16
2024-02-18T01:11:52.305Z,36.14
2024-02-18T01:12:52.307Z,36.14
2024-02-18T01:13:52.256Z,36.19
2024-02-18T01:14:52.297Z,36.16
2024-02-18T01:15:52.400Z,36.11
2024-02-18T01:16:52.395Z,36.11
2024-02-18T01:17:52.469Z,36.20
2024-02-18T01:18:52.709Z,36.13
2024-02-18T01:19:52.590Z,36.10
2024-02-18T01:20:52.572Z,36.13
2024-02-18T01:21:52.695Z,36.16
2024-02-18T01:22:52.656Z,36.14
2024-02-18T01:23:52.751Z,36.17
2024-02-18T01:24:52.760Z,36.13
2024-02-18T01:25:52.783Z,36.14
2024-02-18T01:26:52.834Z,36.17
2024-02-18T01:27:52.934Z,36.14
2024-02-18T01:28:52.934Z,36.20
2024-02-18T01:29:53.000Z,36.16
2024-02-18T01:30:53.064Z,36.15
2024-02-18T01:31:53.041Z,36.16
2024-02-18T01:32:53.154Z,36.19
2024-02-18T01:33:53.204Z,36.16
2024-02-18T01:34:53.215Z,36.20
2024-02-18T01:35:53.213Z,36.14
2024-02-18T01:36:53.355Z,36.20
2024-02-18T01:37:53.306Z,36.19
2024-02-18T01:38:53.360Z,36.16
2024-02-18T01:39:53.441Z,36.09
2024-02-18T01:40:53.444Z,36.22
2024-02-18T01:41:53.482Z,36.14
2024-02-18T01:42:53.544Z,36.18
2024-02-18T01:43:53.557Z,36.13
2024-02-18T01:44:53.607Z,36.13
2024-02-18T01:45:53.656Z,36.17
2024-02-18T01:46:53.747Z,36.16
2024-02-18T01:47:53.808Z,36.22
2024-02-18T01:48:53.986Z,36.14
2024-02-18T01:49:53.952Z,36.16
2024-02-18T01:50:53.922Z,36.16
2024-02-18T01:51:53.940Z,36.16
2024-02-18T01:52:53.970Z,36.19
2024-02-18T01:53:54.057Z,36.13
2024-02-18T01:54:54.138Z,36.16
2024-02-18T01:55:54.109Z,36.14
2024-02-18T01:56:54.153Z,36.14
2024-02-18T01:57:54.287Z,36.16
2024-02-18T01:58:54.261Z,36.20
2024-02-18T01:59:54.296Z,36.13
2024-02-18T02:00:54.390Z,36.14
2024-02-18T02:01:54.465Z,36.15
2024-02-18T02:02:54.439Z,36.11
2024-02-18T02:03:54.535Z,36.16
2024-02-18T02:04:54.657Z,36.15
2024-02-18T02:05:54.640Z,36.20
2024-02-18T02:06:54.687Z,36.18
2024-02-18T02:07:54.682Z,36.17
2024-02-18T02:08:54.710Z,36.15
2024-02-18T02:09:54.794Z,36.19
2024-02-18T02:10:54.846Z,36.16
2024-02-18T02:11:54.850Z,36.17
2024-02-18T02:12:54.930Z,36.07
2024-02-18T02:13:54.948Z,36.17
2024-02-18T02:14:54.990Z,36.19
2024-02-18T02:15:55.121Z,36.14
2024-02-18T02:16:55.081Z,36.17
2024-02-18T02:17:55.262Z,36.14
2024-02-18T02:18:55.246Z,36.14
2024-02-18T02:19:55.376Z,36.17
2024-02-18T02:20:55.293Z,36.08
2024-02-18T02:21:55.345Z,36.14
2024-02-18T02:22:55.387Z,36.16
2024-02-18T02:23:55.422Z,36.14
2024-02-18T02:24:55.507Z,36.11
2024-02-18T02:25:55.531Z,36.19
2024-02-18T02:26:55.576Z,36.11
2024-02-18T02:27:55.636Z,36.19
2024-02-18T02:28:55.661Z,36.10
2024-02-18T02:29:55.719Z,36.15
2024-02-18T02:30:55.808Z,36.12
2024-02-18T02:31:58.551Z,36.18
2024-02-18T02:32:55.999Z,36.11
2024-02-18T02:33:55.822Z,36.14
2024-02-18T02:34:55.881Z,36.13
2024-02-18T02:35:55.777Z,36.19
2024-02-18T02:36:55.802Z,36.19
2024-02-18T02:37:55.750Z,36.17
2024-02-18T02:38:58.467Z,36.18
2024-02-18T02:39:55.787Z,36.14
2024-02-18T02:40:55.717Z,36.14
2024-02-18T02:41:55.701Z,36.14
2024-02-18T02:42:55.726Z,36.19
2024-02-18T02:43:55.680Z,36.19
2024-02-18T02:44:55.681Z,36.17
2024-02-18T02:45:55.702Z,36.16
2024-02-18T02:46:55.655Z,36.15
2024-02-18T02:47:55.699Z,36.19
2024-02-18T02:48:55.695Z,36.17
2024-02-18T02:49:55.866Z,36.11
2024-02-18T02:50:55.625Z,36.14
2024-02-18T02:51:55.628Z,36.13
2024-02-18T02:52:55.622Z,36.17
2024-02-18T02:53:55.603Z,36.10
2024-02-18T02:54:55.667Z,36.10
2024-02-18T02:55:55.578Z,36.14
2024-02-18T02:56:55.578Z,36.14
2024-02-18T02:57:55.602Z,36.15
2024-02-18T02:58:55.562Z,36.16
2024-02-18T02:59:55.546Z,36.17
2024-02-18T03:00:55.600Z,36.17
2024-02-18T03:01:55.563Z,36.10
2024-02-18T03:02:55.513Z,36.15
2024-02-18T03:03:55.565Z,36.15
2024-02-18T03:04:55.527Z,36.17
2024-02-18T03:05:55.497Z,36.17
2024-02-18T03:06:55.584Z,36.14
2024-02-18T03:07:55.487Z,36.14
2024-02-18T03:08:55.455Z,36.11
2024-02-18T03:09:55.472Z,36.14
2024-02-18T03:10:55.428Z,36.14
2024-02-18T03:11:55.463Z,36.11
2024-02-18T03:12:55.431Z,36.09
2024-02-18T03:13:55.406Z,36.13
2024-02-18T03:14:55.400Z,36.11
2024-02-18T03:15:55.409Z,36.11
2024-02-18T03:16:55.382Z,36.14
2024-02-18T03:17:55.385Z,36.11
2024-02-18T03:18:55.469Z,36.13
2024-02-18T03:19:55.398Z,36.11
2024-02-18T03:20:55.443Z,36.10
2024-02-18T03:21:55.369Z,36.13
2024-02-18T03:22:55.377Z,36.11
2024-02-18T03:23:55.458Z,36.14
2024-02-18T03:24:55.555Z,36.13
2024-02-18T03:25:55.540Z,36.07
2024-02-18T03:26:55.585Z,36.13
2024-02-18T03:27:55.648Z,36.11
2024-02-18T03:28:55.662Z,36.10
2024-02-18T03:29:55.719Z,36.07
2024-02-18T03:30:55.819Z,36.10
2024-02-18T03:31:55.814Z,36.05
2024-02-18T03:32:55.907Z,36.10
2024-02-18T03:33:55.988Z,36.14
2024-02-18T03:34:56.021Z,36.09
2024-02-18T03:35:56.012Z,36.10
2024-02-18T03:36:56.129Z,36.09
2024-02-18T03:37:56.112Z,36.16
2024-02-18T03:38:56.214Z,36.11
2024-02-18T03:39:56.241Z,36.08
2024-02-18T03:40:56.247Z,36.05
2024-02-18T03:41:56.299Z,36.13
2024-02-18T03:42:56.441Z,36.02
2024-02-18T03:43:56.404Z,36.04
2024-02-18T03:44:56.451Z,36.06
2024-02-18T03:45:56.564Z,36.10
2024-02-18T03:46:56.541Z,36.07
2024-02-18T03:47:56.630Z,36.04
2024-02-18T03:48:56.718Z,36.07
2024-02-18T03:49:56.811Z,36.04
2024-02-18T03:50:56.738Z,36.07
2024-02-18T03:51:56.944Z,36.04
2024-02-18T03:52:56.849Z,36.07
2024-02-18T03:53:56.884Z,36.05
2024-02-18T03:54:57.036Z,36.05
2024-02-18T03:55:56.998Z,36.07
2024-02-18T03:56:57.041Z,36.08
2024-02-18T03:57:57.136Z,36.04
2024-02-18T03:58:57.194Z,36.05
2024-02-18T03:59:57.186Z,36.07
2024-02-18T04:00:57.310Z,36.07
2024-02-18T04:01:57.305Z,36.09
2024-02-18T04:02:57.316Z,36.05
2024-02-18T04:03:57.459Z,36.05
2024-02-18T04:04:57.542Z,36.03
2024-02-18T04:05:57.458Z,36.02
2024-02-18T04:06:57.534Z,36.05
2024-02-18T04:07:57.552Z,36.06
2024-02-18T04:08:57.688Z,36.07
2024-02-18T04:09:57.668Z,36.10
2024-02-18T04:10:57.730Z,36.03
2024-02-18T04:11:57.782Z,35.94
2024-02-18T04:12:57.853Z,36.01
2024-02-18T04:13:57.848Z,35.97
2024-02-18T04:14:57.897Z,36.01
2024-02-18T04:15:57.976Z,35.97
2024-02-18T04:16:57.999Z,36.01
2024-02-18T04:17:58.120Z,36.04
2024-02-18T04:18:58.170Z,36.03
2024-02-18T04:19:58.255Z,36.03
2024-02-18T04:20:58.193Z,36.01
2024-02-18T04:21:58.295Z,36.01
2024-02-18T04:22:58.301Z,36.00
2024-02-18T04:23:58.372Z,35.96
2024-02-18T04:24:58.463Z,35.98
2024-02-18T04:25:58.442Z,36.03
2024-02-18T04:26:58.477Z,36.03
2024-02-18T04:27:58.584Z,36.04
2024-02-18T04:28:58.576Z,36.01
2024-02-18T04:29:58.628Z,36.01
2024-02-18T04:30:58.727Z,36.04
2024-02-18T04:31:58.716Z,36.04
2024-02-18T04:32:58.826Z,36.04
2024-02-18T04:33:58.946Z,35.98
2024-02-18T04:34:58.994Z,36.02
2024-02-18T04:35:58.893Z,35.94
2024-02-18T04:36:59.036Z,35.96
2024-02-18T04:37:58.996Z,35.98
2024-02-18T04:39:06.253Z,36.05
2024-02-18T04:40:06.374Z,36.07
2024-02-18T04:41:06.247Z,36.05
2024-02-18T04:42:06.244Z,36.04
2024-02-18T04:43:06.317Z,36.04
2024-02-18T04:44:06.239Z,36.01
2024-02-18T04:45:06.238Z,35.98
2024-02-18T04:46:06.279Z,35.98
2024-02-18T04:47:06.224Z,36.00
2024-02-18T04:48:06.266Z,35.96
2024-02-18T04:49:06.286Z,36.00
2024-02-18T04:50:06.241Z,36.00
2024-02-18T04:51:06.190Z,35.95
2024-02-18T04:52:06.227Z,35.93
2024-02-18T04:53:06.175Z,36.00
2024-02-18T04:54:06.171Z,35.93
2024-02-18T04:55:06.207Z,35.94
2024-02-18T04:56:06.159Z,35.98
2024-02-18T04:57:06.136Z,35.97
2024-02-18T04:58:06.236Z,35.97
2024-02-18T04:59:06.111Z,35.95
2024-02-18T05:00:06.107Z,35.98
2024-02-18T05:01:06.169Z,35.98
2024-02-18T05:02:06.102Z,36.00
2024-02-18T05:03:06.130Z,35.97
2024-02-18T05:04:06.124Z,36.03
2024-02-18T05:05:06.111Z,35.96
2024-02-18T05:06:06.094Z,35.98
2024-02-18T05:07:06.111Z,35.97
2024-02-18T05:08:06.059Z,35.93
2024-02-18T05:09:06.038Z,35.98
2024-02-18T05:10:06.174Z,35.96
2024-02-18T05:11:06.028Z,35.93
2024-02-18T05:12:06.058Z,35.97
2024-02-18T05:13:06.133Z,35.97
2024-02-18T05:14:06.151Z,35.90
2024-02-18T05:15:06.211Z,35.91
2024-02-18T05:16:06.291Z,35.91
2024-02-18T05:17:06.293Z,35.97
2024-02-18T05:18:06.404Z,35.93
2024-02-18T05:19:06.429Z,35.90
2024-02-18T05:20:06.439Z,35.87
2024-02-18T05:21:06.510Z,35.89
2024-02-18T05:22:06.702Z,35.93
2024-02-18T05:23:06.592Z,35.91
2024-02-18T05:24:06.634Z,35.94
2024-02-18T05:25:06.772Z,35.97
2024-02-18T05:26:06.724Z,35.90
2024-02-18T05:27:06.774Z,35.91
2024-02-18T05:28:06.933Z,35.93
2024-02-18T05:29:06.862Z,35.93
2024-02-18T05:30:06.937Z,35.88
2024-02-18T05:31:07.004Z,35.91
2024-02-18T05:32:07.005Z,35.87
2024-02-18T05:33:07.123Z,35.92
2024-02-18T05:34:07.279Z,35.93
2024-02-18T05:35:11.313Z,35.91
2024-02-18T05:36:07.189Z,35.87
2024-02-18T05:37:07.296Z,35.90
2024-02-18T05:38:07.149Z,35.91
2024-02-18T05:39:07.127Z,35.90
2024-02-18T05:40:07.238Z,35.87
2024-02-18T05:41:07.127Z,35.83
2024-02-18T05:42:07.112Z,35.88
2024-02-18T05:43:07.197Z,35.94
2024-02-18T05:44:07.099Z,35.87
2024-02-18T05:45:07.097Z,35.88
2024-02-18T05:46:07.149Z,35.85
2024-02-18T05:47:07.142Z,35.93
2024-02-18T05:48:07.312Z,35.87
2024-02-18T05:49:07.370Z,35.84
2024-02-18T05:50:07.379Z,35.84
2024-02-18T05:51:07.355Z,35.88
2024-02-18T05:52:07.459Z,35.87
2024-02-18T05:53:07.432Z,35.78
2024-02-18T05:54:07.476Z,35.87
2024-02-18T05:55:07.575Z,35.81
2024-02-18T05:56:07.575Z,35.84
2024-02-18T05:57:07.618Z,35.86
2024-02-18T05:58:07.719Z,35.81
2024-02-18T05:59:07.715Z,35.78
2024-02-18T06:00:07.843Z,35.86
2024-02-18T06:01:07.849Z,35.86
2024-02-18T06:02:07.847Z,35.80
2024-02-18T06:03:07.892Z,35.77
2024-02-18T06:04:08.075Z,35.80
2024-02-18T06:05:08.027Z,35.78
2024-02-18T06:06:08.168Z,35.84
2024-02-18T06:07:08.168Z,35.82
2024-02-18T06:08:08.132Z,35.77
2024-02-18T06:09:08.186Z,35.77
2024-02-18T06:10:08.445Z,35.74
2024-02-18T06:11:08.378Z,35.78
2024-02-18T06:12:08.378Z,35.84
2024-02-18T06:13:08.422Z,35.78
2024-02-18T06:14:08.426Z,35.77
2024-02-18T06:15:08.462Z,35.85
2024-02-18T06:16:08.592Z,35.74
2024-02-18T06:17:08.558Z,35.70
2024-02-18T06:18:08.751Z,35.72
2024-02-18T06:19:10.190Z,35.79
2024-02-18T06:20:08.672Z,35.73
2024-02-18T06:21:08.640Z,35.76
2024-02-18T06:22:08.893Z,35.72
2024-02-18T06:23:08.650Z,35.76
2024-02-18T06:24:08.640Z,35.80
2024-02-18T06:25:08.710Z,35.77
2024-02-18T06:26:08.641Z,35.78
2024-02-18T06:27:08.639Z,35.77
2024-02-18T06:28:08.734Z,35.74
2024-02-18T06:29:08.631Z,35.77
2024-02-18T06:30:08.648Z,35.71
2024-02-18T06:31:08.708Z,35.74
2024-02-18T06:32:08.822Z,35.76
2024-02-18T06:33:08.705Z,35.73
2024-02-18T06:34:08.705Z,35.78
2024-02-18T06:35:08.835Z,35.73
2024-02-18T06:36:08.610Z,35.72
2024-02-18T06:37:08.679Z,35.73
2024-02-18T06:38:08.606Z,35.77
2024-02-18T06:39:08.601Z,35.74
2024-02-18T06:40:08.650Z,35.76
2024-02-18T06:41:08.597Z,35.77
2024-02-18T06:42:08.590Z,35.70
2024-02-18T06:43:08.628Z,35.74
2024-02-18T06:44:08.576Z,35.71
2024-02-18T06:45:08.596Z,35.74
2024-02-18T06:46:12.796Z,35.74
2024-02-18T06:47:08.563Z,35.71
2024-02-18T06:48:08.718Z,35.71
2024-02-18T06:49:08.618Z,35.74
2024-02-18T06:50:08.610Z,35.74
2024-02-18T06:51:08.542Z,35.68
2024-02-18T06:52:08.667Z,35.67
2024-02-18T06:53:08.531Z,35.70
2024-02-18T06:54:08.550Z,35.73
2024-02-18T06:55:08.588Z,35.69
2024-02-18T06:56:08.522Z,35.68
2024-02-18T06:57:08.523Z,35.68
2024-02-18T06:58:08.643Z,35.69
2024-02-18T06:59:08.538Z,35.73
2024-02-18T07:00:08.576Z,35.70
2024-02-18T07:01:08.680Z,35.70
2024-02-18T07:02:08.728Z,35.69
2024-02-18T07:03:08.697Z,35.66
2024-02-18T07:04:08.987Z,35.64
2024-02-18T07:05:08.984Z,35.64
2024-02-18T07:06:08.963Z,35.70
2024-02-18T07:07:09.034Z,35.67
2024-02-18T07:08:08.907Z,35.66
2024-02-18T07:09:08.955Z,35.62
2024-02-18T07:10:09.229Z,35.64
2024-02-18T07:11:09.099Z,35.64
2024-02-18T07:12:09.140Z,35.66
2024-02-18T07:13:09.199Z,35.62
2024-02-18T07:14:09.213Z,35.64
2024-02-18T07:15:09.224Z,35.61
2024-02-18T07:16:09.455Z,35.67
2024-02-18T07:17:09.311Z,35.70
2024-02-18T07:18:09.624Z,35.64
2024-02-18T07:19:09.706Z,35.68
2024-02-18T07:20:09.631Z,35.63
2024-02-18T07:21:09.485Z,35.66
2024-02-18T07:22:09.549Z,35.63
2024-02-18T07:23:09.576Z,35.63
2024-02-18T07:24:09.625Z,35.63
2024-02-18T07:25:09.738Z,35.62
2024-02-18T07:26:09.716Z,35.61
2024-02-18T07:27:09.743Z,35.62
2024-02-18T07:28:09.915Z,35.61
2024-02-18T07:29:09.841Z,35.60
2024-02-18T07:30:09.889Z,35.51
2024-02-18T07:31:10.016Z,35.64
2024-02-18T07:32:09.966Z,35.60
2024-02-18T07:33:10.109Z,35.59
2024-02-18T07:34:10.099Z,35.57
2024-02-18T07:35:10.086Z,35.54
2024-02-18T07:36:10.219Z,35.54
2024-02-18T07:37:10.196Z,35.56
2024-02-18T07:38:10.227Z,35.56
2024-02-18T07:39:10.255Z,35.54
2024-02-18T07:40:10.446Z,35.53
2024-02-18T07:41:10.342Z,35.56
2024-02-18T07:42:10.378Z,35.59
2024-02-18T07:43:10.538Z,35.52
2024-02-18T07:44:10.451Z,35.53
2024-02-18T07:45:10.504Z,35.52
2024-02-18T07:46:10.616Z,35.54
2024-02-18T07:47:10.578Z,35.51
2024-02-18T07:48:10.634Z,35.55
2024-02-18T07:49:10.729Z,35.51
2024-02-18T07:50:10.695Z,35.57
2024-02-18T07:51:10.733Z,35.51
2024-02-18T07:52:10.899Z,35.50
2024-02-18T07:53:10.811Z,35.56
2024-02-18T07:54:10.856Z,35.52
2024-02-18T07:55:10.942Z,35.49
2024-02-18T07:56:10.933Z,35.50
2024-02-18T07:57:10.978Z,35.53
2024-02-18T07:58:11.047Z,35.47
2024-02-18T07:59:11.061Z,35.51
2024-02-18T08:00:11.116Z,35.51
2024-02-18T08:01:11.293Z,35.47
2024-02-18T08:02:11.199Z,35.50
2024-02-18T08:03:11.225Z,35.54
2024-02-18T08:04:11.353Z,35.54
2024-02-18T08:05:11.502Z,35.51
2024-02-18T08:06:11.453Z,35.49
2024-02-18T08:07:11.420Z,35.53
2024-02-18T08:08:11.512Z,35.53
2024-02-18T08:09:11.465Z,35.49
2024-02-18T08:10:11.622Z,35.50
2024-02-18T08:11:11.579Z,35.47
2024-02-18T08:12:11.580Z,35.50
2024-02-18T08:13:11.699Z,35.43
2024-02-18T08:14:11.680Z,35.49
2024-02-18T08:15:11.711Z,35.50
2024-02-18T08:16:11.782Z,35.52
2024-02-18T08:17:11.798Z,35.52
2024-02-18T08:18:11.981Z,35.46
2024-02-18T08:19:11.919Z,35.46
2024-02-18T08:20:11.944Z,35.47
2024-02-18T08:21:11.972Z,35.46
2024-02-18T08:22:12.109Z,35.47
2024-02-18T08:23:12.109Z,35.43
2024-02-18T08:24:12.176Z,35.46
2024-02-18T08:25:12.240Z,35.46
2024-02-18T08:26:12.164Z,35.43
2024-02-18T08:27:12.221Z,35.40
2024-02-18T08:28:12.339Z,35.40
2024-02-18T08:29:12.917Z,35.46
2024-02-18T08:30:12.320Z,35.40
2024-02-18T08:31:12.386Z,35.42
2024-02-18T08:32:12.392Z,35.43
2024-02-18T08:33:12.463Z,35.38
2024-02-18T08:34:12.581Z,35.36
2024-02-18T08:35:12.600Z,35.36
2024-02-18T08:36:12.514Z,35.38
2024-02-18T08:37:12.618Z,35.35
2024-02-18T08:38:12.626Z,35.33
2024-02-18T08:39:12.625Z,35.32
2024-02-18T08:40:12.804Z,35.35
2024-02-18T08:41:12.673Z,35.38
2024-02-18T08:42:12.716Z,35.33
2024-02-18T08:43:12.819Z,35.29
2024-02-18T08:44:12.757Z,35.29
2024-02-18T08:45:12.820Z,35.31
2024-02-18T08:46:12.863Z,35.31
2024-02-18T08:47:12.839Z,35.28
2024-02-18T08:48:12.928Z,35.25
2024-02-18T08:49:12.932Z,35.27
2024-02-18T08:50:12.936Z,35.25
2024-02-18T08:51:12.969Z,35.25
2024-02-18T08:52:13.012Z,35.21
2024-02-18T08:53:13.010Z,35.25
2024-02-18T08:54:13.027Z,35.22
2024-02-18T08:55:13.219Z,35.15
2024-02-18T08:56:13.155Z,35.20
2024-02-18T08:57:13.104Z,35.17
2024-02-18T08:58:13.167Z,35.17
2024-02-18T08:59:13.174Z,35.18
2024-02-18T09:00:13.197Z,35.16
2024-02-18T09:01:13.353Z,35.12
2024-02-18T09:02:13.276Z,35.10
2024-02-18T09:03:13.278Z,35.15
2024-02-18T09:04:13.370Z,35.11
2024-02-18T09:05:13.503Z,35.19
2024-02-18T09:06:13.412Z,35.14
2024-02-18T09:07:13.412Z,35.11
2024-02-18T09:08:13.424Z,35.06
2024-02-18T09:09:13.452Z,35.10
2024-02-18T09:10:13.623Z,35.10
2024-02-18T09:11:13.535Z,35.10
2024-02-18T09:12:13.615Z,35.07
2024-02-18T09:13:13.661Z,35.09
2024-02-18T09:14:13.586Z,35.09
2024-02-18T09:15:13.637Z,35.08
2024-02-18T09:16:13.723Z,35.04
2024-02-18T09:17:13.676Z,35.06
2024-02-18T09:18:13.747Z,35.04
2024-02-18T09:19:13.795Z,35.07
2024-02-18T09:20:13.973Z,35.10
2024-02-18T09:21:13.792Z,35.03
2024-02-18T09:22:13.924Z,35.07
2024-02-18T09:23:13.836Z,35.04
2024-02-18T09:24:13.865Z,35.06
2024-02-18T09:25:14.106Z,35.06
2024-02-18T09:26:13.933Z,35.04
2024-02-18T09:27:13.955Z,35.06
2024-02-18T09:28:14.040Z,35.03
2024-02-18T09:29:14.020Z,35.03
2024-02-18T09:30:14.051Z,35.02
2024-02-18T09:31:14.152Z,35.02
2024-02-18T09:32:14.109Z,34.97
2024-02-18T09:33:14.181Z,35.04
2024-02-18T09:34:14.294Z,35.00
2024-02-18T09:35:14.376Z,34.99
2024-02-18T09:36:14.196Z,34.99
2024-02-18T09:37:14.240Z,35.02
2024-02-18T09:38:14.236Z,35.00
2024-02-18T09:39:14.247Z,35.02
2024-02-18T09:40:14.331Z,34.97
2024-02-18T09:41:14.306Z,34.99
2024-02-18T09:42:14.315Z,34.99
2024-02-18T09:43:14.371Z,34.96
2024-02-18T09:44:14.363Z,35.00
2024-02-18T09:45:14.428Z,35.06
2024-02-18T09:46:14.552Z,34.93
2024-02-18T09:47:14.439Z,34.97
2024-02-18T09:48:14.548Z,34.99
2024-02-18T09:49:14.567Z,34.97
2024-02-18T09:50:14.556Z,34.93
2024-02-18T09:51:15.521Z,34.96
2024-02-18T09:52:14.731Z,34.97
2024-02-18T09:53:14.584Z,34.92
2024-02-18T09:54:14.610Z,34.93
2024-02-18T09:55:14.683Z,34.95
2024-02-18T09:56:14.672Z,34.96
2024-02-18T09:57:14.685Z,34.93
2024-02-18T09:58:14.756Z,34.93
2024-02-18T09:59:14.729Z,34.92
2024-02-18T10:00:14.836Z,34.95
2024-02-18T10:01:14.854Z,34.97
2024-02-18T10:02:14.802Z,34.96
2024-02-18T10:03:14.819Z,34.95
2024-02-18T10:04:14.895Z,34.93
2024-02-18T10:05:14.955Z,34.95
2024-02-18T10:06:14.902Z,34.95
2024-02-18T10:07:14.940Z,34.88
2024-02-18T10:08:14.944Z,34.90
2024-02-18T10:09:14.964Z,34.96
2024-02-18T10:10:15.036Z,34.95
2024-02-18T10:11:15.057Z,34.98
2024-02-18T10:12:15.026Z,34.99
2024-02-18T10:13:15.124Z,34.92
2024-02-18T10:14:15.090Z,34.95
2024-02-18T10:15:15.089Z,34.95
2024-02-18T10:16:15.258Z,34.90
2024-02-18T10:17:15.129Z,34.92
2024-02-18T10:18:15.233Z,34.92
2024-02-18T10:19:15.288Z,34.96
2024-02-18T10:20:15.198Z,34.92
2024-02-18T10:21:15.220Z,34.92
2024-02-18T10:22:15.300Z,34.92
2024-02-18T10:23:15.259Z,34.88
2024-02-18T10:24:15.297Z,34.92
2024-02-18T10:25:15.361Z,34.91
2024-02-18T10:26:15.335Z,34.93
2024-02-18T10:27:15.357Z,34.90
2024-02-18T10:28:15.399Z,34.88
2024-02-18T10:29:15.396Z,34.92
2024-02-18T10:30:15.418Z,34.89
2024-02-18T10:31:15.489Z,34.90
2024-02-18T10:32:15.545Z,34.91
2024-02-18T10:33:15.509Z,34.89
2024-02-18T10:34:15.682Z,34.91
2024-02-18T10:35:15.738Z,34.91
2024-02-18T10:36:16.054Z,34.91
2024-02-18T10:37:15.682Z,34.89
2024-02-18T10:38:15.594Z,34.88
2024-02-18T10:39:15.619Z,34.88
2024-02-18T10:40:15.747Z,34.88
2024-02-18T10:41:15.659Z,34.84
2024-02-18T10:42:15.679Z,34.91
2024-02-18T10:43:15.767Z,34.90
2024-02-18T10:44:15.711Z,34.90
2024-02-18T10:45:15.740Z,34.91
2024-02-18T10:46:15.817Z,34.90
2024-02-18T10:47:15.773Z,34.86
2024-02-18T10:48:16.003Z,34.88
2024-02-18T10:49:15.952Z,34.92
2024-02-18T10:50:15.833Z,34.97
2024-02-18T10:51:15.869Z,34.94
2024-02-18T10:52:15.904Z,34.90
2024-02-18T10:53:15.886Z,34.91
2024-02-18T10:54:15.900Z,34.88
2024-02-18T10:55:15.935Z,34.90
2024-02-18T10:56:15.985Z,34.97
2024-02-18T10:57:16.008Z,34.97
2024-02-18T10:58:16.011Z,34.88
2024-02-18T10:59:16.022Z,34.91
2024-02-18T11:00:15.992Z,34.95
2024-02-18T11:01:16.116Z,34.94
2024-02-18T11:02:16.019Z,34.91
2024-02-18T11:03:16.062Z,34.91
2024-02-18T11:04:16.301Z,34.94
2024-02-18T11:05:16.160Z,34.95
2024-02-18T11:06:16.220Z,34.94
2024-02-18T11:07:16.298Z,34.94
2024-02-18T11:08:16.201Z,34.90
2024-02-18T11:09:16.119Z,34.92
2024-02-18T11:10:16.171Z,34.91
2024-02-18T11:11:16.208Z,34.94
2024-02-18T11:12:16.169Z,34.95
2024-02-18T11:13:16.226Z,34.92
2024-02-18T11:14:16.184Z,34.94
2024-02-18T11:15:16.212Z,34.91
2024-02-18T11:16:16.310Z,34.91
2024-02-18T11:17:16.356Z,34.94
2024-02-18T11:18:16.415Z,34.91
2024-02-18T11:19:16.538Z,34.92
2024-02-18T11:20:16.465Z,34.96
2024-02-18T11:21:16.311Z,34.94
2024-02-18T11:22:16.331Z,34.92
2024-02-18T11:23:16.308Z,34.96
2024-02-18T11:24:16.320Z,34.91
2024-02-18T11:25:16.480Z,34.93
2024-02-18T11:26:16.354Z,34.96
2024-02-18T11:27:16.369Z,34.92
2024-02-18T11:28:16.415Z,34.94
2024-02-18T11:29:16.404Z,34.96
2024-02-18T11:30:16.494Z,34.96
2024-02-18T11:31:16.456Z,34.97
2024-02-18T11:32:16.452Z,34.95
2024-02-18T11:33:16.618Z,34.95
2024-02-18T11:34:16.547Z,34.97
2024-02-18T11:35:16.637Z,34.97
2024-02-18T11:36:16.598Z,34.97
2024-02-18T11:37:16.540Z,35.00
2024-02-18T11:38:16.536Z,34.98
2024-02-18T11:39:16.576Z,35.00
2024-02-18T11:40:16.779Z,34.99
2024-02-18T11:41:16.570Z,34.94
2024-02-18T11:42:16.594Z,34.97
2024-02-18T11:43:16.645Z,34.96
2024-02-18T11:44:16.619Z,34.97
2024-02-18T11:45:16.625Z,34.94
2024-02-18T11:46:16.715Z,34.94
2024-02-18T11:47:16.666Z,35.01
2024-02-18T11:48:16.754Z,35.00
2024-02-18T11:49:16.775Z,34.98
2024-02-18T11:50:16.681Z,35.03
2024-02-18T11:51:16.698Z,35.00
2024-02-18T11:52:18.542Z,35.04
2024-02-18T11:53:16.679Z,35.00
2024-02-18T11:54:16.667Z,34.99
2024-02-18T11:55:16.730Z,35.04
2024-02-18T11:56:16.676Z,35.03
2024-02-18T11:57:16.625Z,35.07
2024-02-18T11:58:16.638Z,34.98
2024-02-18T11:59:16.624Z,35.00
2024-02-18T12:00:16.577Z,35.01
2024-02-18T12:01:16.742Z,35.04
2024-02-18T12:02:16.567Z,35.06
2024-02-18T12:03:16.541Z,35.01
2024-02-18T12:04:16.628Z,35.03
2024-02-18T12:05:16.570Z,35.06
2024-02-18T12:06:16.723Z,35.06
2024-02-18T12:07:16.614Z,35.08
2024-02-18T12:08:16.570Z,35.08
2024-02-18T12:09:16.471Z,35.07
2024-02-18T12:10:16.485Z,35.06
2024-02-18T12:11:16.506Z,35.08
2024-02-18T12:12:16.437Z,35.10
2024-02-18T12:13:16.506Z,35.08
2024-02-18T12:14:16.407Z,35.09
2024-02-18T12:15:16.402Z,35.07
2024-02-18T12:16:16.460Z,35.07
2024-02-18T12:17:16.360Z,35.08
2024-02-18T12:18:16.453Z,35.06
2024-02-18T12:19:16.686Z,35.13
2024-02-18T12:20:16.302Z,35.06
2024-02-18T12:21:16.310Z,35.08
2024-02-18T12:22:16.339Z,35.10
2024-02-18T12:23:16.258Z,35.14
2024-02-18T12:24:16.238Z,35.07
2024-02-18T12:25:16.333Z,35.08
2024-02-18T12:26:16.207Z,35.08
2024-02-18T12:27:16.214Z,35.10
2024-02-18T12:28:16.252Z,35.07
2024-02-18T12:29:16.167Z,35.10
2024-02-18T12:30:16.152Z,35.08
2024-02-18T12:31:16.195Z,35.08
2024-02-18T12:32:16.121Z,35.10
2024-02-18T12:33:16.269Z,35.12
2024-02-18T12:34:16.142Z,35.12
2024-02-18T12:35:16.119Z,35.10
2024-02-18T12:36:16.081Z,35.10
2024-02-18T12:37:27.150Z,35.08
2024-02-18T12:38:17.056Z,35.13
2024-02-18T12:39:16.049Z,35.09
2024-02-18T12:40:16.177Z,35.13
2024-02-18T12:41:16.030Z,35.13
2024-02-18T12:42:16.005Z,35.10
2024-02-18T12:43:50.873Z,35.16
2024-02-18T12:44:54.690Z,35.10
2024-02-18T12:45:40.553Z,35.14
2024-02-18T12:46:17.186Z,35.08
2024-02-18T12:47:16.006Z,35.17
2024-02-18T12:48:17.195Z,35.13
2024-02-18T12:49:16.042Z,35.12
2024-02-18T12:50:16.120Z,35.14
2024-02-18T12:51:16.157Z,35.10
2024-02-18T12:52:15.918Z,35.13
2024-02-18T12:53:15.886Z,35.16